createdAt,value
2019-01-28T00:01:50.856Z,86.98
2019-01-28T00:04:18.429Z,86.95
2019-01-28T00:06:45.877Z,86.97
2019-01-28T00:09:13.258Z,87.16
2019-01-28T00:11:40.683Z,89.75
2019-01-28T00:14:14.077Z,92.65
2019-01-28T00:16:41.492Z,91.86
2019-01-28T00:19:08.899Z,90.76
2019-01-28T00:21:36.362Z,92.60
2019-01-28T00:24:04.324Z,93.74
2019-01-28T00:26:31.728Z,93.02
2019-01-28T00:28:59.306Z,92.75
2019-01-28T00:31:26.808Z,92.33
2019-01-28T00:33:54.315Z,87.58
2019-01-28T00:36:21.694Z,84.14
2019-01-28T00:38:49.228Z,84.33
2019-01-28T00:41:16.651Z,89.56
2019-01-28T00:43:44.002Z,89.56
2019-01-28T00:46:11.425Z,90.91
2019-01-28T00:48:38.951Z,91.21
2019-01-28T00:51:06.333Z,94.35
2019-01-28T00:53:33.783Z,93.83
2019-01-28T00:56:01.204Z,92.59
2019-01-28T00:58:28.560Z,90.53
2019-01-28T01:00:55.984Z,93.14
2019-01-28T01:03:23.418Z,92.32
2019-01-28T01:05:51.253Z,93.46
2019-01-28T01:08:18.673Z,88.01
2019-01-28T01:10:46.095Z,89.72
2019-01-28T01:13:13.477Z,92.14
2019-01-28T01:15:41.023Z,88.97
2019-01-28T01:18:08.535Z,88.55
2019-01-28T01:20:36.116Z,89.24
2019-01-28T01:23:03.532Z,93.52
2019-01-28T01:25:30.978Z,91.28
2019-01-28T01:27:58.457Z,89.57
2019-01-28T01:30:26.040Z,91.34
2019-01-28T01:32:53.435Z,92.91
2019-01-28T01:35:20.868Z,91.35
2019-01-28T01:37:48.293Z,92.68
2019-01-28T01:40:16.002Z,91.66
2019-01-28T01:42:43.965Z,91.28
2019-01-28T01:45:13.309Z,89.56
2019-01-28T01:47:40.739Z,85.97
2019-01-28T01:50:08.632Z,86.61
2019-01-28T01:52:36.050Z,87.78
2019-01-28T01:55:04.607Z,89.40
2019-01-28T01:57:32.050Z,89.80
2019-01-28T01:59:59.503Z,89.43
2019-01-28T02:02:33.329Z,91.58
2019-01-28T02:04:56.267Z,89.15
2019-01-28T02:07:23.650Z,91.37
2019-01-28T02:09:51.081Z,90.79
2019-01-28T02:12:18.546Z,91.20
2019-01-28T02:14:45.961Z,91.59
2019-01-28T02:17:13.430Z,90.94
2019-01-28T02:19:40.849Z,89.91
2019-01-28T02:22:08.271Z,91.14
2019-01-28T02:24:35.738Z,94.82
2019-01-28T02:27:03.231Z,94.32
2019-01-28T02:29:30.680Z,94.33
2019-01-28T02:31:59.067Z,92.70
2019-01-28T02:34:26.430Z,90.39
2019-01-28T02:36:53.855Z,91.53
2019-01-28T02:39:21.277Z,91.04
2019-01-28T02:41:48.654Z,93.02
2019-01-28T02:44:16.098Z,93.11
2019-01-28T02:46:43.518Z,94.15
2019-01-28T02:49:10.973Z,93.17
2019-01-28T02:51:38.512Z,91.97
2019-01-28T02:54:05.953Z,93.47
2019-01-28T02:56:33.400Z,92.85
2019-01-28T02:59:00.785Z,94.19
2019-01-28T03:01:28.257Z,93.36
2019-01-28T03:03:55.725Z,92.03
2019-01-28T03:06:23.106Z,92.61
2019-01-28T03:08:50.577Z,88.23
2019-01-28T03:11:18.045Z,87.71
2019-01-28T03:13:45.531Z,86.81
2019-01-28T03:16:12.922Z,86.97
2019-01-28T03:18:40.530Z,87.34
2019-01-28T03:21:08.079Z,86.67
2019-01-28T03:23:35.546Z,88.36
2019-01-28T03:26:03.052Z,90.09
2019-01-28T03:28:30.476Z,91.00
2019-01-28T03:30:58.002Z,89.08
2019-01-28T03:33:25.603Z,88.20
2019-01-28T03:35:53.046Z,88.60
2019-01-28T03:38:20.611Z,88.32
2019-01-28T03:40:48.045Z,88.06
2019-01-28T03:43:15.489Z,88.83
2019-01-28T03:45:42.967Z,89.42
2019-01-28T03:48:10.567Z,88.63
2019-01-28T03:50:37.948Z,90.23
2019-01-28T03:53:05.661Z,91.48
2019-01-28T03:55:33.173Z,91.79
2019-01-28T03:58:00.735Z,91.19
2019-01-28T04:00:28.324Z,90.55
2019-01-28T04:02:55.779Z,92.21
2019-01-28T04:05:23.426Z,92.82
2019-01-28T04:07:50.849Z,90.13
2019-01-28T04:10:20.548Z,87.51
2019-01-28T04:12:48.685Z,88.09
2019-01-28T04:15:17.378Z,89.27
2019-01-28T04:17:44.837Z,89.67
2019-01-28T04:20:13.712Z,89.15
2019-01-28T04:22:41.144Z,89.90
2019-01-28T04:25:09.730Z,91.34
2019-01-28T04:27:37.337Z,90.91
2019-01-28T04:30:08.331Z,91.08
2019-01-28T04:32:35.815Z,90.61
2019-01-28T04:35:04.382Z,91.90
2019-01-28T04:37:31.867Z,91.08
2019-01-28T04:39:59.369Z,91.07
2019-01-28T04:42:26.819Z,92.77
2019-01-28T04:44:54.284Z,89.07
2019-01-28T04:47:21.791Z,90.31
2019-01-28T04:49:49.336Z,90.63
2019-01-28T04:52:16.831Z,89.58
2019-01-28T04:54:44.323Z,91.43
2019-01-28T04:57:11.726Z,90.35
2019-01-28T04:59:39.229Z,91.29
2019-01-28T05:02:06.732Z,94.08
2019-01-28T05:04:34.217Z,92.97
2019-01-28T05:07:01.651Z,90.57
2019-01-28T05:09:29.088Z,89.21
2019-01-28T05:11:56.618Z,88.04
2019-01-28T05:14:24.066Z,88.14
2019-01-28T05:16:51.447Z,91.45
2019-01-28T05:19:18.942Z,90.56
2019-01-28T05:21:46.445Z,90.97
2019-01-28T05:24:13.882Z,92.23
2019-01-28T05:26:41.444Z,93.90
2019-01-28T05:29:08.850Z,85.36
2019-01-28T05:31:36.337Z,85.43
2019-01-28T05:34:04.054Z,85.29
2019-01-28T05:36:31.661Z,88.83
2019-01-28T05:38:59.181Z,91.01
2019-01-28T05:41:26.671Z,89.01
2019-01-28T05:43:54.149Z,90.37
2019-01-28T05:46:21.673Z,88.27
2019-01-28T05:48:49.170Z,86.87
2019-01-28T05:51:16.653Z,91.71
2019-01-28T05:53:44.164Z,91.92
2019-01-28T05:56:11.603Z,89.26
2019-01-28T05:58:39.058Z,89.70
2019-01-28T06:01:06.599Z,87.38
2019-01-28T06:03:34.133Z,88.78
2019-01-28T06:06:01.624Z,91.73
2019-01-28T06:08:29.056Z,90.10
2019-01-28T06:10:56.523Z,91.70
2019-01-28T06:13:23.985Z,91.69
2019-01-28T06:15:51.472Z,93.04
2019-01-28T06:18:18.828Z,95.05
2019-01-28T06:20:46.274Z,90.69
2019-01-28T06:23:13.767Z,89.98
2019-01-28T06:25:41.156Z,87.44
2019-01-28T06:28:08.745Z,88.38
2019-01-28T06:30:36.189Z,91.27
2019-01-28T06:33:03.944Z,87.12
2019-01-28T06:35:31.356Z,85.16
2019-01-28T06:37:59.056Z,88.47
2019-01-28T06:40:29.386Z,90.58
2019-01-28T06:42:56.900Z,86.40
2019-01-28T06:45:24.525Z,88.99
2019-01-28T06:47:52.206Z,86.22
2019-01-28T06:50:20.276Z,88.54
2019-01-28T06:52:47.762Z,88.48
2019-01-28T06:55:15.362Z,87.08
2019-01-28T06:57:42.959Z,85.53
2019-01-28T07:00:31.549Z,84.69
2019-01-28T07:02:59.430Z,89.36
2019-01-28T07:05:27.115Z,87.79
2019-01-28T07:07:54.610Z,86.36
2019-01-28T07:10:22.186Z,83.96
2019-01-28T07:12:49.721Z,84.17
2019-01-28T07:15:17.830Z,87.04
2019-01-28T07:17:45.389Z,85.21
2019-01-28T07:20:23.354Z,84.12
2019-01-28T07:22:50.879Z,81.30
2019-01-28T07:25:18.455Z,80.74
2019-01-28T07:27:45.885Z,83.67
2019-01-28T07:30:17.227Z,82.33
2019-01-28T07:32:44.675Z,81.19
2019-01-28T07:35:12.362Z,80.47
2019-01-28T07:37:39.898Z,80.86
2019-01-28T07:40:08.339Z,80.93
2019-01-28T07:42:35.863Z,80.13
2019-01-28T07:45:04.343Z,81.56
2019-01-28T07:47:31.722Z,79.64
2019-01-28T07:49:59.184Z,80.29
2019-01-28T07:52:26.914Z,79.71
2019-01-28T07:54:54.288Z,80.08
2019-01-28T07:57:21.730Z,78.78
2019-01-28T07:59:49.178Z,80.06
2019-01-28T08:02:16.565Z,81.64
2019-01-28T08:04:43.982Z,80.40
2019-01-28T08:07:11.499Z,79.75
2019-01-28T08:09:38.895Z,80.00
2019-01-28T08:12:06.438Z,78.73
2019-01-28T08:14:33.973Z,77.71
2019-01-28T08:17:01.355Z,79.35
2019-01-28T08:19:28.784Z,79.12
2019-01-28T08:21:56.402Z,80.74
2019-01-28T08:24:24.023Z,77.66
2019-01-28T08:26:51.585Z,80.59
2019-01-28T08:29:19.105Z,76.20
2019-01-28T08:31:46.538Z,76.46
2019-01-28T08:34:13.916Z,77.17
2019-01-28T08:36:41.345Z,79.56
2019-01-28T08:39:09.206Z,81.99
2019-01-28T08:41:36.799Z,84.24
2019-01-28T08:44:04.614Z,80.81
2019-01-28T08:46:32.138Z,82.45
2019-01-28T08:48:59.547Z,81.69
2019-01-28T08:51:27.093Z,76.60
2019-01-28T08:53:54.520Z,81.03
2019-01-28T08:56:23.353Z,79.02
2019-01-28T08:58:50.958Z,79.67
2019-01-28T09:01:18.580Z,81.53
2019-01-28T09:03:45.954Z,82.48
2019-01-28T09:06:13.377Z,81.24
2019-01-28T09:08:40.775Z,79.85
2019-01-28T09:11:08.286Z,77.56
2019-01-28T09:13:35.646Z,76.11
2019-01-28T09:16:03.243Z,75.67
2019-01-28T09:18:30.644Z,76.50
2019-01-28T09:20:58.015Z,77.98
2019-01-28T09:23:25.496Z,80.41
2019-01-28T09:25:53.111Z,81.85
2019-01-28T09:28:20.482Z,81.34
2019-01-28T09:30:48.957Z,76.27
2019-01-28T09:33:16.625Z,76.47
2019-01-28T09:35:44.031Z,74.78
2019-01-28T09:38:11.385Z,74.60
2019-01-28T09:40:38.805Z,75.10
2019-01-28T09:43:06.891Z,75.68
2019-01-28T09:45:36.902Z,77.21
2019-01-28T09:48:05.065Z,73.92
2019-01-28T09:50:32.671Z,76.37
2019-01-28T09:53:00.330Z,73.54
2019-01-28T09:55:27.915Z,72.56
2019-01-28T09:57:55.633Z,73.45
2019-01-28T10:00:26.575Z,74.61
2019-01-28T10:02:54.268Z,71.85
2019-01-28T10:05:22.117Z,71.36
2019-01-28T10:07:49.579Z,74.04
2019-01-28T10:10:17.387Z,74.24
2019-01-28T10:12:45.138Z,69.96
2019-01-28T10:15:15.031Z,67.96
2019-01-28T10:17:42.441Z,67.06
2019-01-28T10:20:17.336Z,67.89
2019-01-28T10:22:44.882Z,67.00
2019-01-28T10:25:13.146Z,67.86
2019-01-28T10:27:40.709Z,69.68
2019-01-28T10:30:10.032Z,70.68
2019-01-28T10:32:37.502Z,68.22
2019-01-28T10:35:06.047Z,69.95
2019-01-28T10:37:33.686Z,70.21
2019-01-28T10:40:01.144Z,71.23
2019-01-28T10:42:28.597Z,73.65
2019-01-28T10:44:56.144Z,73.00
2019-01-28T10:47:23.645Z,71.06
2019-01-28T10:49:51.090Z,69.16
2019-01-28T10:52:18.604Z,68.42
2019-01-28T10:54:46.093Z,69.06
2019-01-28T10:57:14.013Z,71.53
2019-01-28T10:59:41.493Z,70.02
2019-01-28T11:02:09.379Z,69.00
2019-01-28T11:04:36.818Z,69.87
2019-01-28T11:07:04.289Z,69.56
2019-01-28T11:09:31.869Z,71.08
2019-01-28T11:11:59.390Z,70.82
2019-01-28T11:14:26.941Z,71.40
2019-01-28T11:16:54.427Z,71.33
2019-01-28T11:19:22.109Z,72.87
2019-01-28T11:21:49.633Z,71.99
2019-01-28T11:24:17.081Z,72.51
2019-01-28T11:26:44.565Z,72.83
2019-01-28T11:29:12.084Z,73.27
2019-01-28T11:31:39.610Z,73.93
2019-01-28T11:34:07.512Z,75.12
2019-01-28T11:36:35.231Z,76.37
2019-01-28T11:39:05.127Z,74.53
2019-01-28T11:41:32.971Z,75.02
2019-01-28T11:44:00.496Z,75.14
2019-01-28T11:46:28.175Z,73.79
2019-01-28T11:48:55.841Z,74.13
2019-01-28T11:51:23.322Z,74.27
2019-01-28T11:53:50.778Z,73.70
2019-01-28T11:56:18.260Z,72.97
2019-01-28T11:58:45.721Z,73.40
2019-01-28T12:01:32.186Z,72.90
2019-01-28T12:03:59.763Z,72.07
2019-01-28T12:06:27.551Z,73.89
2019-01-28T12:08:55.006Z,75.12
2019-01-28T12:11:22.462Z,72.43
2019-01-28T12:13:49.914Z,72.15
2019-01-28T12:16:17.413Z,72.18
2019-01-28T12:18:44.886Z,72.58
2019-01-28T12:21:12.578Z,73.37
2019-01-28T12:23:39.998Z,73.52
2019-01-28T12:26:07.437Z,74.57
2019-01-28T12:28:35.006Z,74.97
2019-01-28T12:31:02.707Z,74.36
2019-01-28T12:33:30.164Z,75.10
2019-01-28T12:35:58.195Z,76.79
2019-01-28T12:38:25.584Z,75.98
2019-01-28T12:40:53.026Z,76.35
2019-01-28T12:43:20.558Z,75.57
2019-01-28T12:45:48.036Z,76.56
2019-01-28T12:48:15.595Z,76.02
2019-01-28T12:50:43.155Z,76.31
2019-01-28T12:53:10.693Z,77.45
2019-01-28T12:55:38.138Z,76.76
2019-01-28T12:58:06.890Z,79.50
2019-01-28T13:00:40.083Z,74.42
2019-01-28T13:03:09.028Z,77.05
2019-01-28T13:05:36.713Z,79.39
2019-01-28T13:08:04.714Z,78.31
2019-01-28T13:10:32.274Z,79.12
2019-01-28T13:12:59.783Z,78.51
2019-01-28T13:15:27.953Z,80.19
2019-01-28T13:17:55.962Z,80.19
2019-01-28T13:20:24.038Z,81.01
2019-01-28T13:22:51.721Z,81.97
2019-01-28T13:25:20.285Z,82.51
2019-01-28T13:27:47.783Z,82.42
2019-01-28T13:30:20.666Z,82.32
2019-01-28T13:32:49.783Z,82.10
2019-01-28T13:35:17.557Z,82.63
2019-01-28T13:37:45.012Z,83.50
2019-01-28T13:40:13.949Z,82.59
2019-01-28T13:42:41.450Z,83.91
2019-01-28T13:45:10.361Z,82.42
2019-01-28T13:47:38.186Z,80.85
2019-01-28T13:50:08.665Z,80.56
2019-01-28T13:52:36.193Z,82.04
2019-01-28T13:55:04.399Z,82.86
2019-01-28T13:57:31.843Z,82.94
2019-01-28T13:59:59.246Z,82.51
2019-01-28T14:02:26.747Z,83.10
2019-01-28T14:04:54.164Z,81.84
2019-01-28T14:07:21.757Z,82.48
2019-01-28T14:09:49.304Z,81.27
2019-01-28T14:12:16.751Z,81.31
2019-01-28T14:14:44.320Z,81.24
2019-01-28T14:17:11.714Z,80.09
2019-01-28T14:19:46.215Z,82.37
2019-01-28T14:22:08.491Z,79.46
2019-01-28T14:24:35.945Z,80.34
2019-01-28T14:27:03.542Z,77.76
2019-01-28T14:29:31.242Z,79.77
2019-01-28T14:31:58.883Z,81.82
2019-01-28T14:34:26.446Z,83.07
2019-01-28T14:36:54.056Z,82.43
2019-01-28T14:39:21.532Z,83.11
2019-01-28T14:41:48.994Z,82.18
2019-01-28T14:44:16.451Z,81.94
2019-01-28T14:46:43.987Z,82.94
2019-01-28T14:49:11.624Z,84.31
2019-01-28T14:51:39.196Z,81.57
2019-01-28T14:54:06.649Z,81.21
2019-01-28T14:56:34.144Z,80.36
2019-01-28T14:59:01.520Z,78.51
2019-01-28T15:01:29.001Z,77.93
2019-01-28T15:03:56.506Z,78.76
2019-01-28T15:06:23.960Z,76.65
2019-01-28T15:08:51.380Z,75.85
2019-01-28T15:11:18.828Z,76.36
2019-01-28T15:13:46.226Z,76.51
2019-01-28T15:16:14.261Z,76.22
2019-01-28T15:18:41.733Z,77.47
2019-01-28T15:21:09.087Z,76.84
2019-01-28T15:23:36.535Z,77.67
2019-01-28T15:26:04.088Z,79.08
2019-01-28T15:28:31.518Z,77.66
2019-01-28T15:30:58.934Z,80.38
2019-01-28T15:33:26.458Z,78.74
2019-01-28T15:35:53.940Z,77.53
2019-01-28T15:38:21.432Z,78.07
2019-01-28T15:40:49.051Z,74.85
2019-01-28T15:43:16.577Z,77.51
2019-01-28T15:45:44.348Z,76.83
2019-01-28T15:48:11.960Z,76.38
2019-01-28T15:50:39.472Z,77.56
2019-01-28T15:53:07.938Z,78.35
2019-01-28T15:55:37.333Z,78.31
2019-01-28T15:58:05.857Z,79.18
2019-01-28T16:00:33.735Z,80.77
2019-01-28T16:03:01.925Z,80.91
2019-01-28T16:05:29.574Z,81.96
2019-01-28T16:07:57.019Z,81.59
2019-01-28T16:10:24.557Z,81.08
2019-01-28T16:12:52.171Z,82.96
2019-01-28T16:15:25.435Z,82.86
2019-01-28T16:17:52.916Z,84.90
2019-01-28T16:20:20.497Z,85.15
2019-01-28T16:22:48.463Z,86.92
2019-01-28T16:25:16.133Z,87.11
2019-01-28T16:27:43.727Z,87.69
2019-01-28T16:30:16.940Z,86.02
2019-01-28T16:32:44.543Z,87.39
2019-01-28T16:35:13.046Z,87.41
2019-01-28T16:37:40.421Z,85.94
2019-01-28T16:40:10.351Z,84.92
2019-01-28T16:42:38.699Z,84.64
2019-01-28T16:45:07.354Z,85.11
2019-01-28T16:47:34.794Z,86.04
2019-01-28T16:50:02.276Z,85.39
2019-01-28T16:52:29.690Z,85.34
2019-01-28T16:54:57.157Z,85.61
2019-01-28T16:57:24.703Z,86.38
2019-01-28T16:59:52.401Z,87.78
2019-01-28T17:02:20.259Z,87.29
2019-01-28T17:04:47.726Z,84.20
2019-01-28T17:07:15.171Z,83.59
2019-01-28T17:09:42.603Z,84.20
2019-01-28T17:12:10.115Z,84.67
2019-01-28T17:14:37.597Z,85.48
2019-01-28T17:17:05.065Z,85.91
2019-01-28T17:19:32.649Z,85.82
2019-01-28T17:22:00.107Z,85.68
2019-01-28T17:24:27.543Z,84.13
2019-01-28T17:26:55.071Z,84.47
2019-01-28T17:29:22.493Z,84.70
2019-01-28T17:31:49.982Z,85.76
2019-01-28T17:34:17.876Z,85.93
2019-01-28T17:36:45.537Z,87.22
2019-01-28T17:39:13.069Z,85.81
2019-01-28T17:41:40.697Z,84.63
2019-01-28T17:44:08.157Z,87.01
2019-01-28T17:46:35.557Z,86.04
2019-01-28T17:49:03.143Z,84.52
2019-01-28T17:51:30.743Z,84.34
2019-01-28T17:53:58.170Z,84.49
2019-01-28T17:56:25.615Z,84.82
2019-01-28T17:58:53.061Z,83.12
2019-01-28T18:01:20.527Z,84.72
2019-01-28T18:03:47.953Z,85.39
2019-01-28T18:06:16.243Z,85.56
2019-01-28T18:08:43.710Z,83.86
2019-01-28T18:11:11.195Z,84.64
2019-01-28T18:13:38.694Z,85.66
2019-01-28T18:16:06.279Z,84.91
2019-01-28T18:18:33.725Z,84.66
2019-01-28T18:21:01.221Z,85.06
2019-01-28T18:24:00.170Z,85.78
2019-01-28T18:26:27.922Z,81.95
2019-01-28T18:28:55.391Z,82.55
2019-01-28T18:31:22.848Z,83.85
2019-01-28T18:33:50.295Z,81.49
2019-01-28T18:36:17.825Z,81.72
2019-01-28T18:38:45.474Z,82.29
2019-01-28T18:41:12.951Z,83.09
2019-01-28T18:43:40.341Z,81.36
2019-01-28T18:46:07.796Z,81.82
2019-01-28T18:48:35.254Z,79.80
2019-01-28T18:51:02.871Z,82.23
2019-01-28T18:53:30.327Z,82.68
2019-01-28T18:55:57.780Z,84.14
2019-01-28T18:58:25.273Z,85.33
2019-01-28T19:00:52.724Z,84.38
2019-01-28T19:03:20.276Z,80.90
2019-01-28T19:06:11.390Z,82.78
2019-01-28T19:08:50.045Z,81.16
2019-01-28T19:11:37.099Z,82.43
2019-01-28T19:14:23.221Z,82.92
2019-01-28T19:17:08.773Z,85.99
2019-01-28T19:20:10.786Z,82.91
2019-01-28T19:22:38.249Z,84.92
2019-01-28T19:25:07.402Z,82.87
2019-01-28T19:27:34.825Z,79.67
2019-01-28T19:30:02.291Z,81.69
2019-01-28T19:32:29.766Z,81.95
2019-01-28T19:34:57.189Z,80.25
2019-01-28T19:37:24.845Z,81.82
2019-01-28T19:39:52.515Z,83.78
2019-01-28T19:42:20.007Z,83.46
2019-01-28T19:44:47.563Z,82.57
2019-01-28T19:47:15.183Z,84.25
2019-01-28T19:49:42.639Z,82.02
2019-01-28T19:52:10.079Z,81.41
2019-01-28T19:54:37.582Z,83.38
2019-01-28T19:57:05.041Z,83.84
2019-01-28T19:59:32.525Z,83.70
2019-01-28T20:02:00.152Z,84.58
2019-01-28T20:04:28.539Z,83.05
2019-01-28T20:06:57.408Z,86.07
2019-01-28T20:09:25.320Z,84.05
2019-01-28T20:11:53.469Z,85.87
2019-01-28T20:14:21.345Z,85.16
2019-01-28T20:16:48.780Z,82.96
2019-01-28T20:19:16.351Z,83.72
2019-01-28T20:21:44.353Z,84.29
2019-01-28T20:24:11.867Z,84.85
2019-01-28T20:26:39.402Z,84.71
2019-01-28T20:29:07.045Z,86.29
2019-01-28T20:31:34.453Z,84.25
2019-01-28T20:34:01.831Z,83.01
2019-01-28T20:36:29.836Z,84.05
2019-01-28T20:38:57.847Z,85.03
2019-01-28T20:41:25.257Z,81.13
2019-01-28T20:43:53.322Z,82.20
2019-01-28T20:46:21.028Z,84.29
2019-01-28T20:48:48.501Z,84.59
2019-01-28T20:51:15.961Z,84.06
2019-01-28T20:53:43.898Z,84.06
2019-01-28T20:56:11.397Z,82.33
2019-01-28T20:58:39.014Z,83.19
2019-01-28T21:01:06.437Z,83.33
2019-01-28T21:03:34.179Z,82.57
2019-01-28T21:06:01.723Z,84.88
2019-01-28T21:08:29.554Z,82.78
2019-01-28T21:10:57.076Z,85.08
2019-01-28T21:13:24.636Z,86.53
2019-01-28T21:15:52.073Z,83.88
2019-01-28T21:18:19.412Z,82.65
2019-01-28T21:20:46.825Z,82.53
2019-01-28T21:23:14.245Z,84.48
2019-01-28T21:25:41.720Z,83.33
2019-01-28T21:28:09.091Z,85.83
2019-01-28T21:30:36.514Z,85.79
2019-01-28T21:33:04.029Z,85.79
2019-01-28T21:35:43.172Z,85.06
2019-01-28T21:38:13.580Z,85.97
2019-01-28T21:40:41.016Z,87.21
2019-01-28T21:43:08.437Z,87.02
2019-01-28T21:45:35.947Z,86.34
2019-01-28T21:48:04.069Z,84.76
2019-01-28T21:50:31.683Z,84.43
2019-01-28T21:52:59.082Z,86.21
2019-01-28T21:55:26.619Z,86.76
2019-01-28T21:57:54.030Z,87.71
2019-01-28T22:00:21.850Z,86.95
2019-01-28T22:02:49.218Z,87.44
2019-01-28T22:05:16.637Z,89.25
2019-01-28T22:07:44.201Z,87.77
2019-01-28T22:10:12.221Z,85.10
2019-01-28T22:12:39.745Z,86.05
2019-01-28T22:15:10.735Z,85.89
2019-01-28T22:17:38.169Z,86.05
2019-01-28T22:20:06.181Z,86.64
2019-01-28T22:22:33.655Z,89.08
2019-01-28T22:25:01.068Z,89.64
2019-01-28T22:27:28.743Z,86.88
2019-01-28T22:29:56.357Z,86.99
2019-01-28T22:32:23.790Z,89.81
2019-01-28T22:34:51.201Z,89.34
2019-01-28T22:37:18.674Z,89.08
2019-01-28T22:39:46.113Z,88.04
2019-01-28T22:42:21.057Z,84.26
2019-01-28T22:44:43.401Z,87.78
2019-01-28T22:47:10.857Z,85.44
2019-01-28T22:49:38.809Z,86.32
2019-01-28T22:52:07.947Z,88.34
2019-01-28T22:54:35.895Z,84.32
2019-01-28T22:57:03.584Z,85.78
2019-01-28T22:59:31.004Z,85.50
2019-01-28T23:01:58.429Z,87.50
2019-01-28T23:04:25.780Z,84.84
2019-01-28T23:06:53.193Z,84.98
2019-01-28T23:09:20.614Z,83.79
2019-01-28T23:11:47.973Z,82.43
2019-01-28T23:14:15.497Z,83.49
2019-01-28T23:16:43.032Z,84.22
2019-01-28T23:19:10.484Z,84.88
2019-01-28T23:21:37.909Z,83.60
2019-01-28T23:24:05.667Z,84.26
2019-01-28T23:26:33.033Z,84.01
2019-01-28T23:29:00.589Z,82.05
2019-01-28T23:31:28.003Z,83.23
2019-01-28T23:33:55.433Z,84.21
2019-01-28T23:36:22.850Z,84.00
2019-01-28T23:38:50.338Z,83.85
2019-01-28T23:41:17.787Z,85.55
2019-01-28T23:43:45.222Z,88.42
2019-01-28T23:46:12.697Z,88.33
2019-01-28T23:48:40.170Z,84.98
2019-01-28T23:51:07.626Z,86.83
2019-01-28T23:53:35.033Z,86.28
2019-01-28T23:56:02.564Z,84.83
2019-01-28T23:58:30.018Z,87.60
